Terminal Aerodrome Forecast
Issued by NWS

Home | Current Version | Previous Version | Text Only | Print | Product List | Glossary On
Versions: 1 2 3 4 5 6 7 8 9 10 11 12 13 14 15 16 17 18 19 20 21 22 23 24 25
066
FTUS42 KFFC 271745
TAFFTY
TAF
KFTY 271745Z 2718/2818 10008KT P6SM VCSH BKN030 BKN120
     FM280200 07008KT 6SM -SHRA SCT012 OVC020
     FM280700 06008G15KT 4SM -SHRA BKN009 OVC015
     FM281500 06010G18KT P6SM VCSH OVC015=

USA.gov is the U.S. government's official web portal to all federal, state and local government web resources and services.